Capricorn One — 9V3475 — position and weather

sailwx.info

Track history (hours):
 
Tides and Currents Weather Stations Pressure Air Temp Water Temp Dewpoint Dewpoint Depression Visibility Wind Speed Wind Dir Waves Ship Positions

Capricorn One

Last reported at 2018-May-11 10:29 UTC. Time now 2018-Jun-23 14:04 UTC.
Position N 24°46' E 122°46'.
Warning: this ship's position is 43 days out of date.

Length 292 m; draft 17.7 m.

Type: Cargo ship. MMSI: 564096000.

Date/timePositionNaut miles runAvg speedWind from/ knotsBaromVisibWave heightAir tempDewpointWater temp
2018-May-11 10:29N 24°46' E 122°46'713.2
2018-May-11 09:57N 24°40' E 122°44'613.0
2018-May-11 09:30N 24°34' E 122°43'613.0
2018-May-11 09:00N 24°27' E 122°43'812.7
2018-May-11 08:23N 24°19' E 122°45'512.6
2018-May-11 08:00N 24°15' E 122°46'  
2018-May-05 04:42N 01°26' E 104°32'210.6
2018-May-05 04:30N 01°25' E 104°30'610.8
2018-May-05 04:00N 01°22' E 104°25'610.9
2018-May-05 03:25N 01°18' E 104°21'510.9
2018-May-05 03:00N 01°16' E 104°16'510.5
2018-May-05 02:29N 01°16' E 104°11'5 8.4
2018-May-05 01:55N 01°16' E 104°06'3 6.4
2018-May-05 01:30N 01°17' E 104°04'1 1.1
2018-May-05 00:38N 01°18' E 104°04'0 0.0
2018-May-04 23:35N 01°18' E 104°04'0 0.0
2018-May-04 23:24N 01°18' E 104°04'0 0.0
2018-May-04 22:54N 01°18' E 104°04'0 0.0
2018-May-04 22:23N 01°18' E 104°04'0 0.0
2018-May-04 21:57N 01°18' E 104°04'0 0.0
2018-May-04 21:23N 01°18' E 104°04'0 0.0
2018-May-04 20:57N 01°18' E 104°04'0 0.0
2018-May-04 20:15N 01°18' E 104°04'0 0.1
2018-May-04 19:54N 01°18' E 104°04'0 0.0
2018-May-04 19:10N 01°18' E 104°04'0 0.5
2018-May-04 18:59N 01°18' E 104°04'0 0.2
2018-May-04 18:25N 01°18' E 104°03'0 0.3
2018-May-04 17:56N 01°18' E 104°03'0 0.3
2018-May-04 17:29N 01°18' E 104°03'0 0.1
2018-May-04 16:54N 01°18' E 104°03'0 0.1
2018-May-04 16:31N 01°18' E 104°03'0 0.1
2018-May-04 15:52N 01°18' E 104°03'0 0.1
2018-May-04 15:26N 01°18' E 104°03'0 0.1
2018-May-04 14:45N 01°18' E 104°03'0 0.0
2018-May-04 14:31N 01°18' E 104°03'1 2.0
2018-May-04 14:00N 01°17' E 104°04'2 4.7
2018-May-04 13:30N 01°17' E 104°06'2 3.6
2018-May-04 13:00N 01°17' E 104°08'2 4.0
2018-May-04 12:30N 01°17' E 104°10'2 4.7
2018-May-04 12:00N 01°17' E 104°13'3 6.5
2018-May-04 11:30N 01°18' E 104°16'4 8.2
2018-May-04 10:59N 01°19' E 104°20'4 7.4
2018-May-04 10:29N 01°21' E 104°23'4 7.4
2018-May-04 10:00N 01°24' E 104°25'380 8.8
2018-May-02 14:59S 04°09' E 107°30'510.9
2018-May-02 14:30S 04°14' E 107°28'2211.2
2018-May-02 12:34S 04°34' E 107°21'  
Track history (hours):
 
Tides and Currents Weather Stations Pressure Air Temp Water Temp Dewpoint Dewpoint Depression Visibility Wind Speed Wind Dir Waves Ship Positions

Capricorn One

Last reported at 2018-May-11 10:29 UTC. Time now 2018-Jun-23 14:04 UTC.
Position N 24°46' E 122°46'.
Warning: this ship's position is 43 days out of date.

Length 292 m; draft 17.7 m.

Type: Cargo ship. MMSI: 564096000.

Date/timePositionNaut miles runAvg speedWind from/ knotsBaromVisibWave heightAir tempDewpointWater temp
2018-May-11 10:29N 24°46' E 122°46'713.2
2018-May-11 09:57N 24°40' E 122°44'613.0
2018-May-11 09:30N 24°34' E 122°43'613.0
2018-May-11 09:00N 24°27' E 122°43'812.7
2018-May-11 08:23N 24°19' E 122°45'512.6
2018-May-11 08:00N 24°15' E 122°46'  
2018-May-05 04:42N 01°26' E 104°32'210.6
2018-May-05 04:30N 01°25' E 104°30'610.8
2018-May-05 04:00N 01°22' E 104°25'610.9
2018-May-05 03:25N 01°18' E 104°21'510.9
2018-May-05 03:00N 01°16' E 104°16'510.5
2018-May-05 02:29N 01°16' E 104°11'5 8.4
2018-May-05 01:55N 01°16' E 104°06'3 6.4
2018-May-05 01:30N 01°17' E 104°04'1 1.1
2018-May-05 00:38N 01°18' E 104°04'0 0.0
2018-May-04 23:35N 01°18' E 104°04'0 0.0
2018-May-04 23:24N 01°18' E 104°04'0 0.0
2018-May-04 22:54N 01°18' E 104°04'0 0.0
2018-May-04 22:23N 01°18' E 104°04'0 0.0
2018-May-04 21:57N 01°18' E 104°04'0 0.0
2018-May-04 21:23N 01°18' E 104°04'0 0.0
2018-May-04 20:57N 01°18' E 104°04'0 0.0
2018-May-04 20:15N 01°18' E 104°04'0 0.1
2018-May-04 19:54N 01°18' E 104°04'0 0.0
2018-May-04 19:10N 01°18' E 104°04'0 0.5
2018-May-04 18:59N 01°18' E 104°04'0 0.2
2018-May-04 18:25N 01°18' E 104°03'0 0.3
2018-May-04 17:56N 01°18' E 104°03'0 0.3
2018-May-04 17:29N 01°18' E 104°03'0 0.1
2018-May-04 16:54N 01°18' E 104°03'0 0.1
2018-May-04 16:31N 01°18' E 104°03'0 0.1
2018-May-04 15:52N 01°18' E 104°03'0 0.1
2018-May-04 15:26N 01°18' E 104°03'0 0.1
2018-May-04 14:45N 01°18' E 104°03'0 0.0
2018-May-04 14:31N 01°18' E 104°03'1 2.0
2018-May-04 14:00N 01°17' E 104°04'2 4.7
2018-May-04 13:30N 01°17' E 104°06'2 3.6
2018-May-04 13:00N 01°17' E 104°08'2 4.0
2018-May-04 12:30N 01°17' E 104°10'2 4.7
2018-May-04 12:00N 01°17' E 104°13'3 6.5
2018-May-04 11:30N 01°18' E 104°16'4 8.2
2018-May-04 10:59N 01°19' E 104°20'4 7.4
2018-May-04 10:29N 01°21' E 104°23'4 7.4
2018-May-04 10:00N 01°24' E 104°25'380 8.8
2018-May-02 14:59S 04°09' E 107°30'510.9
2018-May-02 14:30S 04°14' E 107°28'2211.2
2018-May-02 12:34S 04°34' E 107°21'  

Dump ship's entire track history